Lady Maryland — WTV4008 — position and weather

sailwx.info

Track history (hours):
 
Tides and Currents Weather Stations Pressure Air Temp Water Temp Dewpoint Dewpoint Depression Visibility Wind Speed Wind Dir Waves Ship Positions

Lady Maryland

Owner: LIVING CLASSROOMS FOUNDATION, BALTIMORE, MD. More information available from US FCC via Universal Licensing System and Coast Guard Vessel Documentation Center.

Last reported at 2017-Sep-24 06:28 UTC. Time now 2017-Sep-24 06:59 UTC.
Position N 39°17' W 076°36'.

Length 32 m.

Type: Sailing vessel. MMSI: 367350650.

Date/timePositionNaut miles runAvg speedWind from/ knotsBaromVisibWave heightAir tempDewpointWater temp
2017-Sep-24 06:28N 39°17' W 076°36'0 0.0
2017-Sep-24 05:55N 39°17' W 076°36'0 0.0
2017-Sep-24 05:28N 39°17' W 076°36'0 0.0
2017-Sep-24 04:55N 39°17' W 076°36'0 0.0
2017-Sep-24 04:22N 39°17' W 076°36'0 0.0
2017-Sep-24 03:28N 39°17' W 076°36'0 0.0
2017-Sep-24 02:58N 39°17' W 076°36'0 0.0
2017-Sep-24 02:16N 39°17' W 076°36'0 0.0
2017-Sep-24 01:58N 39°17' W 076°36'0 0.0
2017-Sep-24 01:28N 39°17' W 076°36'0 0.0
2017-Sep-24 00:52N 39°17' W 076°36'0 0.0
2017-Sep-24 00:22N 39°17' W 076°36'0 0.0
2017-Sep-23 23:52N 39°17' W 076°36'0 0.0
2017-Sep-23 23:28N 39°17' W 076°36'0 0.0
2017-Sep-23 22:34N 39°17' W 076°36'0 0.1
2017-Sep-23 22:25N 39°17' W 076°36'0 0.0
2017-Sep-23 21:58N 39°17' W 076°36'0 0.0
2017-Sep-23 21:25N 39°17' W 076°36'0 0.0
2017-Sep-23 20:55N 39°17' W 076°36'0 0.0
2017-Sep-23 20:28N 39°17' W 076°36'16 0.3
2017-Sep-21 17:56N 39°04' W 076°25'6 6.9
2017-Sep-21 17:08N 39°09' W 076°26'2 6.6
2017-Sep-21 16:50N 39°11' W 076°27'2 5.6
2017-Sep-21 16:29N 39°12' W 076°29'3 5.9
2017-Sep-21 16:00N 39°13' W 076°32'3 6.4
2017-Sep-21 15:30N 39°16' W 076°35'1 1.9
2017-Sep-21 14:58N 39°17' W 076°35'0 0.2
2017-Sep-21 13:40N 39°17' W 076°36'0 0.1
2017-Sep-21 13:30N 39°17' W 076°36'0 0.3
2017-Sep-21 12:30N 39°17' W 076°36'0 0.6
2017-Sep-21 12:00N 39°17' W 076°36'0 0.0
2017-Sep-21 11:30N 39°17' W 076°36'0 0.0
2017-Sep-21 05:27N 39°17' W 076°36'0 0.0
2017-Sep-21 04:48N 39°17' W 076°36'0 0.0
2017-Sep-21 03:30N 39°17' W 076°36'0 0.0
2017-Sep-21 02:57N 39°17' W 076°36'0 0.0
2017-Sep-21 02:27N 39°17' W 076°36'0 0.0
2017-Sep-21 02:00N 39°17' W 076°36'0 0.0
2017-Sep-21 01:30N 39°17' W 076°36'0 0.0
2017-Sep-21 01:00N 39°17' W 076°36'0 0.0
2017-Sep-21 00:30N 39°17' W 076°36'0 0.0
2017-Sep-21 00:00N 39°17' W 076°36'0 0.0
2017-Sep-20 23:06N 39°17' W 076°36'0 0.0
2017-Sep-20 23:00N 39°17' W 076°36'0 0.0
2017-Sep-20 21:42N 39°17' W 076°36'0 0.0
2017-Sep-19 18:24N 39°17' W 076°36'0 0.1
2017-Sep-19 18:00N 39°17' W 076°36'2 4.5
2017-Sep-19 17:29N 39°15' W 076°34'1 2.4
2017-Sep-19 17:00N 39°14' W 076°33'0 0.4
2017-Sep-19 16:30N 39°14' W 076°32'1 1.0
2017-Sep-19 15:53N 39°14' W 076°32'1 2.6
2017-Sep-19 15:30N 39°15' W 076°33'2 3.8
2017-Sep-19 15:00N 39°16' W 076°35'1 1.2
2017-Sep-19 13:59N 39°17' W 076°36'0 0.0
2017-Sep-19 13:30N 39°17' W 076°36'0 0.0
2017-Sep-19 12:59N 39°17' W 076°36'0 0.0
2017-Sep-18 23:13N 39°17' W 076°36'0 0.3
2017-Sep-18 23:00N 39°17' W 076°36'1 2.6
2017-Sep-18 22:30N 39°16' W 076°34'1 1.9
2017-Sep-18 21:50N 39°17' W 076°36'0 0.0
2017-Sep-18 17:51N 39°17' W 076°36'1 3.4
2017-Sep-18 17:30N 39°16' W 076°35'2 2.8
2017-Sep-18 16:41N 39°14' W 076°32'0 1.5
2017-Sep-18 16:29N 39°14' W 076°32'1 1.5
2017-Sep-18 15:59N 39°14' W 076°32'2 3.3
2017-Sep-18 15:29N 39°15' W 076°33'2 3.7
2017-Sep-18 15:00N 39°16' W 076°35'1 2.2
2017-Sep-18 14:28N 39°17' W 076°36'0 0.0
2017-Sep-18 13:58N 39°17' W 076°36'0 0.0
2017-Sep-18 13:28N 39°17' W 076°36'0 0.0
2017-Sep-18 12:58N 39°17' W 076°36'1 0.0
2017-Sep-16 18:25N 39°17' W 076°36'1 1.9
2017-Sep-16 18:00N 39°17' W 076°36'2 3.0
2017-Sep-16 17:30N 39°16' W 076°34'2 2.0
2017-Sep-16 16:38N 39°14' W 076°32'0 0.4
2017-Sep-16 16:26N 39°14' W 076°33'1 1.1
2017-Sep-16 15:54N 39°15' W 076°33'1 1.3
2017-Sep-16 15:30N 39°15' W 076°34'1 1.2
2017-Sep-16 14:59N 39°15' W 076°34'2 3.8
2017-Sep-16 14:30N 39°17' W 076°35'1 0.7
2017-Sep-16 13:19N 39°17' W 076°36'0 0.1
2017-Sep-16 12:53N 39°17' W 076°36'0 0.0
2017-Sep-15 18:48N 39°17' W 076°36'0 0.0
2017-Sep-15 18:18N 39°17' W 076°36'0 1.6
2017-Sep-15 18:00N 39°17' W 076°35'1 1.9
2017-Sep-15 17:30N 39°16' W 076°34'3 4.3
2017-Sep-15 16:51N 39°14' W 076°31'1 1.0
2017-Sep-15 16:09N 39°14' W 076°32'0 3.3
2017-Sep-15 16:00N 39°13' W 076°32'1 2.3
2017-Sep-15 15:27N 39°14' W 076°33'2 4.6
2017-Sep-15 15:00N 39°16' W 076°34'2 2.7
2017-Sep-15 14:25N 39°17' W 076°36'0 0.0
2017-Sep-15 13:55N 39°17' W 076°36'0 0.0
2017-Sep-15 13:25N 39°17' W 076°36'0 0.0
2017-Sep-15 12:58N 39°17' W 076°36'0 0.0
2017-Sep-15 12:25N 39°17' W 076°36'0 0.0
2017-Sep-14 23:10N 39°17' W 076°36'0 0.0
2017-Sep-14 23:00N 39°17' W 076°36'1 2.5
2017-Sep-14 22:30N 39°16' W 076°35'0 1.0
2017-Sep-14 22:00N 39°16' W 076°35'1 1.5
2017-Sep-14 21:28N 39°17' W 076°36'0 0.0
2017-Sep-14 20:55N 39°17' W 076°36'0 0.0
2017-Sep-14 20:28N 39°17' W 076°36'0 0.0
2017-Sep-14 19:55N 39°17' W 076°36'  
Track history (hours):
 
Tides and Currents Weather Stations Pressure Air Temp Water Temp Dewpoint Dewpoint Depression Visibility Wind Speed Wind Dir Waves Ship Positions

Lady Maryland

Owner: LIVING CLASSROOMS FOUNDATION, BALTIMORE, MD. More information available from US FCC via Universal Licensing System and Coast Guard Vessel Documentation Center.

Last reported at 2017-Sep-24 06:28 UTC. Time now 2017-Sep-24 06:59 UTC.
Position N 39°17' W 076°36'.

Length 32 m.

Type: Sailing vessel. MMSI: 367350650.

Date/timePositionNaut miles runAvg speedWind from/ knotsBaromVisibWave heightAir tempDewpointWater temp
2017-Sep-24 06:28N 39°17' W 076°36'0 0.0
2017-Sep-24 05:55N 39°17' W 076°36'0 0.0
2017-Sep-24 05:28N 39°17' W 076°36'0 0.0
2017-Sep-24 04:55N 39°17' W 076°36'0 0.0
2017-Sep-24 04:22N 39°17' W 076°36'0 0.0
2017-Sep-24 03:28N 39°17' W 076°36'0 0.0
2017-Sep-24 02:58N 39°17' W 076°36'0 0.0
2017-Sep-24 02:16N 39°17' W 076°36'0 0.0
2017-Sep-24 01:58N 39°17' W 076°36'0 0.0
2017-Sep-24 01:28N 39°17' W 076°36'0 0.0
2017-Sep-24 00:52N 39°17' W 076°36'0 0.0
2017-Sep-24 00:22N 39°17' W 076°36'0 0.0
2017-Sep-23 23:52N 39°17' W 076°36'0 0.0
2017-Sep-23 23:28N 39°17' W 076°36'0 0.0
2017-Sep-23 22:34N 39°17' W 076°36'0 0.1
2017-Sep-23 22:25N 39°17' W 076°36'0 0.0
2017-Sep-23 21:58N 39°17' W 076°36'0 0.0
2017-Sep-23 21:25N 39°17' W 076°36'0 0.0
2017-Sep-23 20:55N 39°17' W 076°36'0 0.0
2017-Sep-23 20:28N 39°17' W 076°36'16 0.3
2017-Sep-21 17:56N 39°04' W 076°25'6 6.9
2017-Sep-21 17:08N 39°09' W 076°26'2 6.6
2017-Sep-21 16:50N 39°11' W 076°27'2 5.6
2017-Sep-21 16:29N 39°12' W 076°29'3 5.9
2017-Sep-21 16:00N 39°13' W 076°32'3 6.4
2017-Sep-21 15:30N 39°16' W 076°35'1 1.9
2017-Sep-21 14:58N 39°17' W 076°35'0 0.2
2017-Sep-21 13:40N 39°17' W 076°36'0 0.1
2017-Sep-21 13:30N 39°17' W 076°36'0 0.3
2017-Sep-21 12:30N 39°17' W 076°36'0 0.6
2017-Sep-21 12:00N 39°17' W 076°36'0 0.0
2017-Sep-21 11:30N 39°17' W 076°36'0 0.0
2017-Sep-21 05:27N 39°17' W 076°36'0 0.0
2017-Sep-21 04:48N 39°17' W 076°36'0 0.0
2017-Sep-21 03:30N 39°17' W 076°36'0 0.0
2017-Sep-21 02:57N 39°17' W 076°36'0 0.0
2017-Sep-21 02:27N 39°17' W 076°36'0 0.0
2017-Sep-21 02:00N 39°17' W 076°36'0 0.0
2017-Sep-21 01:30N 39°17' W 076°36'0 0.0
2017-Sep-21 01:00N 39°17' W 076°36'0 0.0
2017-Sep-21 00:30N 39°17' W 076°36'0 0.0
2017-Sep-21 00:00N 39°17' W 076°36'0 0.0
2017-Sep-20 23:06N 39°17' W 076°36'0 0.0
2017-Sep-20 23:00N 39°17' W 076°36'0 0.0
2017-Sep-20 21:42N 39°17' W 076°36'0 0.0
2017-Sep-19 18:24N 39°17' W 076°36'0 0.1
2017-Sep-19 18:00N 39°17' W 076°36'2 4.5
2017-Sep-19 17:29N 39°15' W 076°34'1 2.4
2017-Sep-19 17:00N 39°14' W 076°33'0 0.4
2017-Sep-19 16:30N 39°14' W 076°32'1 1.0
2017-Sep-19 15:53N 39°14' W 076°32'1 2.6
2017-Sep-19 15:30N 39°15' W 076°33'2 3.8
2017-Sep-19 15:00N 39°16' W 076°35'1 1.2
2017-Sep-19 13:59N 39°17' W 076°36'0 0.0
2017-Sep-19 13:30N 39°17' W 076°36'0 0.0
2017-Sep-19 12:59N 39°17' W 076°36'0 0.0
2017-Sep-18 23:13N 39°17' W 076°36'0 0.3
2017-Sep-18 23:00N 39°17' W 076°36'1 2.6
2017-Sep-18 22:30N 39°16' W 076°34'1 1.9
2017-Sep-18 21:50N 39°17' W 076°36'0 0.0
2017-Sep-18 17:51N 39°17' W 076°36'1 3.4
2017-Sep-18 17:30N 39°16' W 076°35'2 2.8
2017-Sep-18 16:41N 39°14' W 076°32'0 1.5
2017-Sep-18 16:29N 39°14' W 076°32'1 1.5
2017-Sep-18 15:59N 39°14' W 076°32'2 3.3
2017-Sep-18 15:29N 39°15' W 076°33'2 3.7
2017-Sep-18 15:00N 39°16' W 076°35'1 2.2
2017-Sep-18 14:28N 39°17' W 076°36'0 0.0
2017-Sep-18 13:58N 39°17' W 076°36'0 0.0
2017-Sep-18 13:28N 39°17' W 076°36'0 0.0
2017-Sep-18 12:58N 39°17' W 076°36'1 0.0
2017-Sep-16 18:25N 39°17' W 076°36'1 1.9
2017-Sep-16 18:00N 39°17' W 076°36'2 3.0
2017-Sep-16 17:30N 39°16' W 076°34'2 2.0
2017-Sep-16 16:38N 39°14' W 076°32'0 0.4
2017-Sep-16 16:26N 39°14' W 076°33'1 1.1
2017-Sep-16 15:54N 39°15' W 076°33'1 1.3
2017-Sep-16 15:30N 39°15' W 076°34'1 1.2
2017-Sep-16 14:59N 39°15' W 076°34'2 3.8
2017-Sep-16 14:30N 39°17' W 076°35'1 0.7
2017-Sep-16 13:19N 39°17' W 076°36'0 0.1
2017-Sep-16 12:53N 39°17' W 076°36'0 0.0
2017-Sep-15 18:48N 39°17' W 076°36'0 0.0
2017-Sep-15 18:18N 39°17' W 076°36'0 1.6
2017-Sep-15 18:00N 39°17' W 076°35'1 1.9
2017-Sep-15 17:30N 39°16' W 076°34'3 4.3
2017-Sep-15 16:51N 39°14' W 076°31'1 1.0
2017-Sep-15 16:09N 39°14' W 076°32'0 3.3
2017-Sep-15 16:00N 39°13' W 076°32'1 2.3
2017-Sep-15 15:27N 39°14' W 076°33'2 4.6
2017-Sep-15 15:00N 39°16' W 076°34'2 2.7
2017-Sep-15 14:25N 39°17' W 076°36'0 0.0
2017-Sep-15 13:55N 39°17' W 076°36'0 0.0
2017-Sep-15 13:25N 39°17' W 076°36'0 0.0
2017-Sep-15 12:58N 39°17' W 076°36'0 0.0
2017-Sep-15 12:25N 39°17' W 076°36'0 0.0
2017-Sep-14 23:10N 39°17' W 076°36'0 0.0
2017-Sep-14 23:00N 39°17' W 076°36'1 2.5
2017-Sep-14 22:30N 39°16' W 076°35'0 1.0
2017-Sep-14 22:00N 39°16' W 076°35'1 1.5
2017-Sep-14 21:28N 39°17' W 076°36'0 0.0
2017-Sep-14 20:55N 39°17' W 076°36'0 0.0
2017-Sep-14 20:28N 39°17' W 076°36'0 0.0
2017-Sep-14 19:55N 39°17' W 076°36'  

Dump ship's entire track history